BAW40F KJFK-EGLL
Flight info
| Callsign | BAW40F |
|---|---|
| Flight time | N/A |
| Altitude | 35000 |
| Route | HTO114022 KANNI SUPRY/M084F370 4650N 4840N 5030N 5220N LIMRI/N0479F370 XETBO ENJEX AVZAC INFEC JETZI AMFUL CAWZE SIRIC EGLL |
| Aircraft | B744/H-SDE1E2E3FGHIJ2J3J4J5M1RWXY/LB1D1 |
Departure
| Time | N/A |
|---|---|
| Airport | John F. Kennedy International Airport (KJFK) |
Arrival
| Time | 2026-05-04 21:07 |
|---|---|
| Airport | London Heathrow Airport (EGLL) |
| Time | Latitude | Longitude | Altitude | Speed | Heading |
|---|---|---|---|---|---|
| 2026-05-04 20:16 | 42.66156 | -66.90792 | 34906 ft | 551 kts | 68° |
| 2026-05-04 20:16 | 42.86586 | -66.11804 | 34915 ft | 555 kts | 70° |
| 2026-05-04 20:17 | 43.06900 | -65.31863 | 34916 ft | 558 kts | 71° |
| 2026-05-04 20:17 | 43.26669 | -64.51478 | 34903 ft | 562 kts | 72° |
| 2026-05-04 20:18 | 43.46097 | -63.69561 | 34896 ft | 565 kts | 72° |
| 2026-05-04 20:18 | 43.65070 | -62.86552 | 34899 ft | 567 kts | 73° |
| 2026-05-04 20:19 | 43.83445 | -62.02992 | 34860 ft | 569 kts | 74° |
| 2026-05-04 20:19 | 44.01289 | -61.18539 | 34880 ft | 570 kts | 74° |
| 2026-05-04 20:20 | 44.18513 | -60.33551 | 34833 ft | 571 kts | 75° |
| 2026-05-04 20:20 | 44.35015 | -59.48536 | 34835 ft | 570 kts | 76° |
| 2026-05-04 20:21 | 44.50969 | -58.62596 | 34797 ft | 571 kts | 76° |
| 2026-05-04 20:21 | 44.73784 | -57.32186 | 34842 ft | 574 kts | 78° |
| 2026-05-04 20:22 | 44.88207 | -56.44438 | 34796 ft | 574 kts | 78° |
| 2026-05-04 20:22 | 45.01920 | -55.56478 | 34845 ft | 573 kts | 79° |
| 2026-05-04 20:23 | 45.12809 | -54.82985 | 34794 ft | 573 kts | 80° |
| 2026-05-04 20:23 | 45.25289 | -53.94205 | 34794 ft | 575 kts | 81° |
| 2026-05-04 20:24 | 45.38966 | -52.90200 | 34800 ft | 577 kts | 82° |
| 2026-05-04 20:24 | 45.44546 | -52.45367 | 35127 ft | 570 kts | 83° |
| 2026-05-04 20:24 | 45.49909 | -52.01063 | 35861 ft | 566 kts | 81° |
| 2026-05-04 20:25 | 45.56828 | -51.72142 | 36512 ft | 569 kts | 68° |
| 2026-05-04 20:25 | 45.68123 | -51.29878 | 37000 ft | 572 kts | 72° |
| 2026-05-04 20:25 | 45.78832 | -50.86794 | 36896 ft | 576 kts | 72° |
| 2026-05-04 20:25 | 45.89340 | -50.44184 | 36823 ft | 569 kts | 73° |
| 2026-05-04 20:26 | 45.99558 | -50.01869 | 36709 ft | 556 kts | 73° |
| 2026-05-04 20:26 | 46.10023 | -49.59970 | 36910 ft | 556 kts | 72° |
| 2026-05-04 20:26 | 46.30813 | -48.74563 | 36968 ft | 571 kts | 74° |
| 2026-05-04 20:27 | 46.51112 | -47.87840 | 36820 ft | 563 kts | 76° |
| 2026-05-04 20:27 | 46.70459 | -47.01760 | 36905 ft | 555 kts | 76° |
| 2026-05-04 20:28 | 46.88817 | -46.16658 | 36920 ft | 550 kts | 77° |
| 2026-05-04 20:28 | 47.06516 | -45.31118 | 36907 ft | 546 kts | 78° |
| 2026-05-04 20:29 | 47.23408 | -44.45921 | 36902 ft | 540 kts | 79° |
| 2026-05-04 20:29 | 47.39468 | -43.61241 | 36954 ft | 532 kts | 79° |
| 2026-05-04 20:30 | 47.54675 | -42.77334 | 36996 ft | 525 kts | 79° |
| 2026-05-04 20:30 | 47.69095 | -41.93903 | 37060 ft | 520 kts | 80° |
| 2026-05-04 20:31 | 47.82857 | -41.10321 | 37108 ft | 520 kts | 79° |
| 2026-05-04 20:31 | 47.95909 | -40.26909 | 37156 ft | 521 kts | 78° |
| 2026-05-04 20:32 | 48.13876 | -39.44872 | 37253 ft | 521 kts | 70° |
| 2026-05-04 20:32 | 48.33627 | -38.62827 | 37221 ft | 523 kts | 69° |
| 2026-05-04 20:33 | 48.52936 | -37.79948 | 37301 ft | 525 kts | 68° |
| 2026-05-04 20:33 | 48.71701 | -36.96276 | 37308 ft | 525 kts | 68° |
| 2026-05-04 20:34 | 48.89855 | -36.11991 | 37354 ft | 525 kts | 68° |
| 2026-05-04 20:34 | 49.07367 | -35.27173 | 37371 ft | 523 kts | 67° |
| 2026-05-04 20:35 | 49.24104 | -34.42561 | 37369 ft | 516 kts | 67° |
| 2026-05-04 20:35 | 49.40023 | -33.58401 | 37390 ft | 511 kts | 67° |
| 2026-05-04 20:36 | 49.55237 | -32.74291 | 37421 ft | 511 kts | 68° |
| 2026-05-04 20:36 | 49.69878 | -31.89381 | 37423 ft | 513 kts | 69° |
| 2026-05-04 20:37 | 49.83836 | -31.04369 | 37439 ft | 514 kts | 70° |
| 2026-05-04 20:37 | 49.97299 | -30.17957 | 37465 ft | 516 kts | 72° |
| 2026-05-04 20:38 | 50.05723 | -29.75685 | 37475 ft | 503 kts | 63° |
| 2026-05-04 20:38 | 50.16298 | -29.35037 | 37473 ft | 507 kts | 66° |
| 2026-05-04 20:38 | 50.36157 | -28.52329 | 37465 ft | 508 kts | 67° |
| 2026-05-04 20:39 | 50.55501 | -27.68895 | 37458 ft | 508 kts | 68° |
| 2026-05-04 20:39 | 50.74215 | -26.84953 | 37429 ft | 507 kts | 69° |
| 2026-05-04 20:40 | 50.92193 | -26.00992 | 37436 ft | 506 kts | 70° |
| 2026-05-04 20:40 | 51.09635 | -25.16026 | 37436 ft | 506 kts | 70° |
| 2026-05-04 20:41 | 51.26463 | -24.30386 | 37431 ft | 506 kts | 71° |
| 2026-05-04 20:41 | 51.42640 | -23.44261 | 37416 ft | 505 kts | 71° |
| 2026-05-04 20:42 | 51.58140 | -22.57762 | 37411 ft | 502 kts | 72° |
| 2026-05-04 20:42 | 51.72921 | -21.71169 | 37391 ft | 501 kts | 72° |
| 2026-05-04 20:43 | 51.87047 | -20.84118 | 37383 ft | 499 kts | 73° |
| 2026-05-04 20:43 | 52.00302 | -19.96850 | 37365 ft | 500 kts | 79° |
| 2026-05-04 20:44 | 52.01618 | -19.06680 | 37340 ft | 502 kts | 86° |
| 2026-05-04 20:44 | 52.02465 | -18.16080 | 37321 ft | 501 kts | 88° |
| 2026-05-04 20:45 | 52.02623 | -17.25560 | 37285 ft | 502 kts | 89° |
| 2026-05-04 20:45 | 52.02088 | -16.34930 | 37269 ft | 501 kts | 89° |
| 2026-05-04 20:46 | 52.00860 | -15.44395 | 37255 ft | 501 kts | 90° |
| 2026-05-04 20:46 | 52.00136 | -14.54167 | 37231 ft | 499 kts | 88° |
| 2026-05-04 20:47 | 52.01311 | -13.64208 | 37211 ft | 497 kts | 84° |
| 2026-05-04 20:47 | 52.04446 | -12.74553 | 37232 ft | 495 kts | 85° |
| 2026-05-04 20:48 | 52.06803 | -11.85334 | 37166 ft | 492 kts | 86° |
| 2026-05-04 20:48 | 52.08462 | -10.97080 | 37175 ft | 486 kts | 86° |
| 2026-05-04 20:49 | 52.09452 | -10.10110 | 37151 ft | 482 kts | 88° |
| 2026-05-04 20:49 | 52.09803 | -9.23309 | 37164 ft | 477 kts | 88° |
| 2026-05-04 20:50 | 52.09519 | -8.37197 | 37113 ft | 475 kts | 89° |
| 2026-05-04 20:50 | 52.08613 | -7.51419 | 37105 ft | 474 kts | 90° |
| 2026-05-04 20:51 | 52.07088 | -6.65709 | 37103 ft | 474 kts | 90° |
| 2026-05-04 20:51 | 51.99702 | -5.81593 | 37188 ft | 479 kts | 116° |
| 2026-05-04 20:52 | 51.76875 | -5.03666 | 37055 ft | 480 kts | 113° |
| 2026-05-04 20:52 | 51.55878 | -4.24627 | 37051 ft | 480 kts | 112° |
| 2026-05-04 20:53 | 51.50484 | -3.82883 | 37072 ft | 479 kts | 101° |
| 2026-05-04 20:53 | 51.46949 | -3.50188 | 37089 ft | 481 kts | 95° |
| 2026-05-04 20:53 | 51.45509 | -3.21614 | 37051 ft | 484 kts | 96° |
| 2026-05-04 20:54 | 51.42882 | -2.79730 | 35055 ft | 460 kts | 97° |
| 2026-05-04 20:54 | 51.41540 | -2.59165 | 31647 ft | 465 kts | 98° |
| 2026-05-04 20:54 | 51.40160 | -2.38549 | 28419 ft | 457 kts | 99° |
| 2026-05-04 20:55 | 51.38812 | -2.18955 | 25682 ft | 442 kts | 98° |
| 2026-05-04 20:55 | 51.37458 | -1.99699 | 23098 ft | 429 kts | 98° |
| 2026-05-04 20:55 | 51.36104 | -1.80984 | 20386 ft | 416 kts | 97° |
| 2026-05-04 20:55 | 51.34766 | -1.62818 | 17789 ft | 407 kts | 98° |
| 2026-05-04 20:56 | 51.33443 | -1.45141 | 15211 ft | 394 kts | 97° |
| 2026-05-04 20:56 | 51.32151 | -1.28069 | 12934 ft | 377 kts | 97° |
| 2026-05-04 20:56 | 51.31107 | -1.11663 | 10463 ft | 368 kts | 91° |
| 2026-05-04 20:56 | 51.31116 | -1.05058 | 9693 ft | 355 kts | 90° |
| 2026-05-04 20:57 | 51.31124 | -1.01310 | 9639 ft | 320 kts | 91° |
| 2026-05-04 20:57 | 51.31115 | -0.97891 | 9425 ft | 296 kts | 91° |
| 2026-05-04 20:57 | 51.31095 | -0.94684 | 9144 ft | 285 kts | 91° |
| 2026-05-04 20:57 | 51.31070 | -0.91579 | 8869 ft | 272 kts | 91° |
| 2026-05-04 20:58 | 51.31042 | -0.88623 | 8584 ft | 259 kts | 91° |
| 2026-05-04 20:58 | 51.31014 | -0.85818 | 8296 ft | 247 kts | 91° |
| 2026-05-04 20:58 | 51.30985 | -0.83120 | 8035 ft | 241 kts | 91° |
| 2026-05-04 20:58 | 51.30955 | -0.80463 | 7774 ft | 237 kts | 91° |
| 2026-05-04 20:59 | 51.30926 | -0.77845 | 7514 ft | 234 kts | 91° |
| 2026-05-04 20:59 | 51.30979 | -0.75313 | 7236 ft | 227 kts | 75° |
| 2026-05-04 20:59 | 51.31739 | -0.73126 | 6974 ft | 224 kts | 43° |
| 2026-05-04 20:59 | 51.33070 | -0.71865 | 6772 ft | 226 kts | 16° |
| 2026-05-04 21:00 | 51.34606 | -0.71797 | 6504 ft | 228 kts | 338° |
| 2026-05-04 21:00 | 51.35818 | -0.73387 | 6236 ft | 226 kts | 301° |
| 2026-05-04 21:00 | 51.36505 | -0.75629 | 5997 ft | 227 kts | 295° |
| 2026-05-04 21:00 | 51.37488 | -0.77563 | 5636 ft | 228 kts | 327° |
| 2026-05-04 21:01 | 51.38951 | -0.78498 | 5348 ft | 227 kts | 347° |
| 2026-05-04 21:01 | 51.40517 | -0.78815 | 5033 ft | 227 kts | 357° |
| 2026-05-04 21:01 | 51.42076 | -0.78909 | 4743 ft | 218 kts | 358° |
| 2026-05-04 21:01 | 51.43558 | -0.78974 | 4390 ft | 210 kts | 359° |
| 2026-05-04 21:02 | 51.44998 | -0.79040 | 3984 ft | 203 kts | 1° |
| 2026-05-04 21:02 | 51.46302 | -0.78477 | 3683 ft | 188 kts | 39° |
| 2026-05-04 21:02 | 51.47008 | -0.76763 | 3560 ft | 191 kts | 72° |
| 2026-05-04 21:02 | 51.47304 | -0.74658 | 3328 ft | 195 kts | 79° |
| 2026-05-04 21:03 | 51.47491 | -0.72534 | 3082 ft | 189 kts | 81° |
| 2026-05-04 21:03 | 51.47626 | -0.70467 | 2822 ft | 183 kts | 85° |
| 2026-05-04 21:03 | 51.47671 | -0.68473 | 2563 ft | 174 kts | 88° |
| 2026-05-04 21:03 | 51.47682 | -0.66621 | 2360 ft | 161 kts | 88° |
| 2026-05-04 21:04 | 51.47690 | -0.64810 | 2142 ft | 163 kts | 88° |
| 2026-05-04 21:04 | 51.47697 | -0.63003 | 1924 ft | 160 kts | 88° |
| 2026-05-04 21:04 | 51.47702 | -0.61242 | 1699 ft | 156 kts | 86° |
| 2026-05-04 21:04 | 51.47708 | -0.59557 | 1483 ft | 145 kts | 86° |
| 2026-05-04 21:05 | 51.47714 | -0.57936 | 1326 ft | 145 kts | 86° |
| 2026-05-04 21:05 | 51.47720 | -0.56321 | 1095 ft | 143 kts | 87° |
| 2026-05-04 21:05 | 51.47727 | -0.54713 | 914 ft | 147 kts | 88° |
| 2026-05-04 21:05 | 51.47733 | -0.53065 | 680 ft | 147 kts | 88° |
| 2026-05-04 21:06 | 51.47735 | -0.51563 | 464 ft | 142 kts | 88° |
| 2026-05-04 21:06 | 51.47738 | -0.49989 | 301 ft | 143 kts | 87° |
| 2026-05-04 21:06 | 51.47747 | -0.48396 | 140 ft | 144 kts | 86° |
| 2026-05-04 21:06 | 51.47760 | -0.46869 | 96 ft | 122 kts | 90° |
| 2026-05-04 21:07 | 51.47760 | -0.45804 | 92 ft | 69 kts | 90° |
| 2026-05-04 21:07 | 51.47762 | -0.45325 | 91 ft | 23 kts | 89° |
| 2026-05-04 21:07 | 51.47741 | -0.45191 | 95 ft | 11 kts | 141° |
| 2026-05-04 21:07 | 51.47666 | -0.45174 | 94 ft | 7 kts | 180° |
| 2026-05-04 21:08 | 51.47617 | -0.45184 | 92 ft | 7 kts | 208° |
| 2026-05-04 21:08 | 51.47599 | -0.45264 | 94 ft | 8 kts | 265° |
| 2026-05-04 21:08 | 51.47597 | -0.45363 | 91 ft | 9 kts | 270° |
| 2026-05-04 21:08 | 51.47597 | -0.45481 | 91 ft | 14 kts | 270° |
| 2026-05-04 21:09 | 51.47596 | -0.45688 | 94 ft | 21 kts | 269° |
| 2026-05-04 21:09 | 51.47595 | -0.45928 | 94 ft | 22 kts | 270° |
| 2026-05-04 21:09 | 51.47595 | -0.46168 | 94 ft | 22 kts | 269° |
| 2026-05-04 21:09 | 51.47593 | -0.46408 | 94 ft | 22 kts | 270° |
| 2026-05-04 21:10 | 51.47592 | -0.46648 | 92 ft | 22 kts | 270° |
| 2026-05-04 21:10 | 51.47584 | -0.46886 | 94 ft | 21 kts | 264° |
| 2026-05-04 21:10 | 51.47583 | -0.47115 | 94 ft | 20 kts | 270° |
| 2026-05-04 21:10 | 51.47582 | -0.47273 | 94 ft | 9 kts | 270° |
| 2026-05-04 21:11 | 51.47552 | -0.47354 | 93 ft | 10 kts | 197° |
| 2026-05-04 21:11 | 51.47507 | -0.47356 | 93 ft | 10 kts | 180° |
| 2026-05-04 21:11 | 51.47432 | -0.47355 | 93 ft | 11 kts | 179° |
| 2026-05-04 21:11 | 51.47350 | -0.47355 | 91 ft | 12 kts | 180° |
| 2026-05-04 21:12 | 51.47230 | -0.47353 | 94 ft | 14 kts | 179° |
| 2026-05-04 21:12 | 51.47137 | -0.47352 | 91 ft | 11 kts | 179° |
| 2026-05-04 21:12 | 51.47085 | -0.47352 | 91 ft | 12 kts | 180° |
| 2026-05-04 21:12 | 51.47018 | -0.47351 | 91 ft | 5 kts | 180° |
| 2026-05-04 21:13 | 51.46990 | -0.47374 | 96 ft | 5 kts | 232° |
| 2026-05-04 21:13 | 51.46982 | -0.47432 | 94 ft | 6 kts | 265° |
| 2026-05-04 21:13 | 51.46982 | -0.47477 | 94 ft | 2 kts | 270° |
| 2026-05-04 21:13 | 51.46982 | -0.47491 | 94 ft | 1 kts | 270° |
| 2026-05-04 21:14 | 51.46982 | -0.47492 | 94 ft | 0 kts | 270° |